sensor_id;sensor_type;location;lat;lon;timestamp;P1;durP1;ratioP1;P2;durP2;ratioP2
48578;SDS011;34357;51.948;6.132;2024-03-08T00:02:13;57.63;;;32.13;;
48578;SDS011;34357;51.948;6.132;2024-03-08T00:04:39;56.30;;;32.97;;
48578;SDS011;34357;51.948;6.132;2024-03-08T00:07:05;58.38;;;31.90;;
48578;SDS011;34357;51.948;6.132;2024-03-08T00:09:32;53.83;;;31.65;;
48578;SDS011;34357;51.948;6.132;2024-03-08T00:11:57;53.10;;;32.15;;
48578;SDS011;34357;51.948;6.132;2024-03-08T00:14:23;54.45;;;31.70;;
48578;SDS011;34357;51.948;6.132;2024-03-08T00:16:49;56.15;;;30.67;;
48578;SDS011;34357;51.948;6.132;2024-03-08T00:19:16;51.80;;;30.55;;
48578;SDS011;34357;51.948;6.132;2024-03-08T00:21:42;56.88;;;32.53;;
48578;SDS011;34357;51.948;6.132;2024-03-08T00:24:07;53.45;;;30.88;;
48578;SDS011;34357;51.948;6.132;2024-03-08T00:26:33;52.58;;;30.80;;
48578;SDS011;34357;51.948;6.132;2024-03-08T00:28:59;60.83;;;33.00;;
48578;SDS011;34357;51.948;6.132;2024-03-08T00:31:24;56.78;;;32.42;;
48578;SDS011;34357;51.948;6.132;2024-03-08T00:33:50;56.60;;;31.10;;
48578;SDS011;34357;51.948;6.132;2024-03-08T00:36:17;54.97;;;31.73;;
48578;SDS011;34357;51.948;6.132;2024-03-08T00:38:43;54.70;;;31.45;;
48578;SDS011;34357;51.948;6.132;2024-03-08T00:41:09;54.40;;;31.27;;
48578;SDS011;34357;51.948;6.132;2024-03-08T00:43:35;52.55;;;30.73;;
48578;SDS011;34357;51.948;6.132;2024-03-08T00:46:00;54.63;;;31.65;;
48578;SDS011;34357;51.948;6.132;2024-03-08T00:48:26;55.33;;;33.65;;
48578;SDS011;34357;51.948;6.132;2024-03-08T00:50:53;49.05;;;31.00;;
48578;SDS011;34357;51.948;6.132;2024-03-08T00:53:18;60.35;;;32.40;;
48578;SDS011;34357;51.948;6.132;2024-03-08T00:55:44;52.53;;;31.42;;
48578;SDS011;34357;51.948;6.132;2024-03-08T00:58:11;55.50;;;32.08;;
48578;SDS011;34357;51.948;6.132;2024-03-08T01:00:38;54.72;;;32.45;;
48578;SDS011;34357;51.948;6.132;2024-03-08T01:03:06;55.15;;;32.00;;
48578;SDS011;34357;51.948;6.132;2024-03-08T01:05:32;51.97;;;31.42;;
48578;SDS011;34357;51.948;6.132;2024-03-08T01:07:58;53.30;;;31.25;;
48578;SDS011;34357;51.948;6.132;2024-03-08T01:10:24;52.42;;;31.60;;
48578;SDS011;34357;51.948;6.132;2024-03-08T01:12:50;57.30;;;32.58;;
48578;SDS011;34357;51.948;6.132;2024-03-08T01:15:16;51.92;;;31.27;;
48578;SDS011;34357;51.948;6.132;2024-03-08T01:17:41;51.33;;;30.95;;
48578;SDS011;34357;51.948;6.132;2024-03-08T01:20:08;51.50;;;31.23;;
48578;SDS011;34357;51.948;6.132;2024-03-08T01:22:37;50.67;;;32.40;;
48578;SDS011;34357;51.948;6.132;2024-03-08T01:25:03;49.08;;;31.10;;
48578;SDS011;34357;51.948;6.132;2024-03-08T01:27:30;51.63;;;31.20;;
48578;SDS011;34357;51.948;6.132;2024-03-08T01:29:57;48.22;;;29.77;;
48578;SDS011;34357;51.948;6.132;2024-03-08T01:32:24;51.10;;;32.13;;
48578;SDS011;34357;51.948;6.132;2024-03-08T01:34:50;53.55;;;33.13;;
48578;SDS011;34357;51.948;6.132;2024-03-08T01:37:16;49.53;;;32.03;;
48578;SDS011;34357;51.948;6.132;2024-03-08T01:39:41;49.65;;;31.95;;
48578;SDS011;34357;51.948;6.132;2024-03-08T01:42:07;43.55;;;30.00;;
48578;SDS011;34357;51.948;6.132;2024-03-08T01:44:34;56.25;;;32.70;;
48578;SDS011;34357;51.948;6.132;2024-03-08T01:46:59;47.80;;;30.92;;
48578;SDS011;34357;51.948;6.132;2024-03-08T01:49:26;47.40;;;30.85;;
48578;SDS011;34357;51.948;6.132;2024-03-08T01:51:53;49.28;;;30.67;;
48578;SDS011;34357;51.948;6.132;2024-03-08T01:54:21;49.20;;;30.10;;
48578;SDS011;34357;51.948;6.132;2024-03-08T01:56:48;47.95;;;30.63;;
48578;SDS011;34357;51.948;6.132;2024-03-08T01:59:14;50.38;;;31.95;;
48578;SDS011;34357;51.948;6.132;2024-03-08T02:01:41;46.13;;;31.70;;
48578;SDS011;34357;51.948;6.132;2024-03-08T02:04:07;49.60;;;30.92;;
48578;SDS011;34357;51.948;6.132;2024-03-08T02:06:33;47.42;;;30.67;;
48578;SDS011;34357;51.948;6.132;2024-03-08T02:08:58;48.15;;;31.30;;
48578;SDS011;34357;51.948;6.132;2024-03-08T02:11:25;45.67;;;31.75;;
48578;SDS011;34357;51.948;6.132;2024-03-08T02:13:51;49.65;;;31.50;;
48578;SDS011;34357;51.948;6.132;2024-03-08T02:16:20;47.15;;;31.35;;
48578;SDS011;34357;51.948;6.132;2024-03-08T02:18:47;48.25;;;32.60;;
48578;SDS011;34357;51.948;6.132;2024-03-08T02:21:13;51.78;;;31.73;;
48578;SDS011;34357;51.948;6.132;2024-03-08T02:23:43;53.20;;;33.13;;
48578;SDS011;34357;51.948;6.132;2024-03-08T02:26:08;51.75;;;33.47;;
48578;SDS011;34357;51.948;6.132;2024-03-08T02:28:34;48.57;;;32.17;;
48578;SDS011;34357;51.948;6.132;2024-03-08T02:31:01;50.85;;;32.58;;
48578;SDS011;34357;51.948;6.132;2024-03-08T02:33:27;50.65;;;33.42;;
48578;SDS011;34357;51.948;6.132;2024-03-08T02:35:53;52.20;;;33.45;;
48578;SDS011;34357;51.948;6.132;2024-03-08T02:38:21;47.53;;;32.78;;
48578;SDS011;34357;51.948;6.132;2024-03-08T02:40:48;51.53;;;33.25;;
48578;SDS011;34357;51.948;6.132;2024-03-08T02:43:15;47.00;;;32.13;;
48578;SDS011;34357;51.948;6.132;2024-03-08T02:45:41;55.30;;;34.10;;
48578;SDS011;34357;51.948;6.132;2024-03-08T02:48:07;49.07;;;33.97;;
48578;SDS011;34357;51.948;6.132;2024-03-08T02:50:33;48.35;;;32.70;;
48578;SDS011;34357;51.948;6.132;2024-03-08T02:53:00;49.92;;;33.90;;
48578;SDS011;34357;51.948;6.132;2024-03-08T02:55:26;44.95;;;32.53;;
48578;SDS011;34357;51.948;6.132;2024-03-08T02:57:53;52.67;;;34.07;;
48578;SDS011;34357;51.948;6.132;2024-03-08T03:00:22;53.87;;;35.60;;
48578;SDS011;34357;51.948;6.132;2024-03-08T03:02:48;52.83;;;35.10;;
48578;SDS011;34357;51.948;6.132;2024-03-08T03:05:22;52.20;;;34.17;;
48578;SDS011;34357;51.948;6.132;2024-03-08T03:07:48;48.33;;;33.25;;
48578;SDS011;34357;51.948;6.132;2024-03-08T03:10:17;54.35;;;34.78;;
48578;SDS011;34357;51.948;6.132;2024-03-08T03:12:44;53.47;;;35.83;;
48578;SDS011;34357;51.948;6.132;2024-03-08T03:15:19;52.10;;;35.20;;
48578;SDS011;34357;51.948;6.132;2024-03-08T03:17:48;50.53;;;34.93;;
48578;SDS011;34357;51.948;6.132;2024-03-08T03:20:16;50.40;;;34.53;;
48578;SDS011;34357;51.948;6.132;2024-03-08T03:22:48;50.80;;;34.57;;
48578;SDS011;34357;51.948;6.132;2024-03-08T03:25:17;54.33;;;35.60;;
48578;SDS011;34357;51.948;6.132;2024-03-08T03:27:49;52.55;;;35.67;;
48578;SDS011;34357;51.948;6.132;2024-03-08T03:30:15;52.17;;;35.63;;
48578;SDS011;34357;51.948;6.132;2024-03-08T03:32:49;53.22;;;34.33;;
48578;SDS011;34357;51.948;6.132;2024-03-08T03:35:17;52.23;;;35.67;;
48578;SDS011;34357;51.948;6.132;2024-03-08T03:37:43;51.78;;;35.17;;
48578;SDS011;34357;51.948;6.132;2024-03-08T03:40:28;54.53;;;35.23;;
48578;SDS011;34357;51.948;6.132;2024-03-08T03:42:54;55.43;;;34.50;;
48578;SDS011;34357;51.948;6.132;2024-03-08T03:45:20;49.73;;;35.07;;
48578;SDS011;34357;51.948;6.132;2024-03-08T03:47:46;49.23;;;33.03;;
48578;SDS011;34357;51.948;6.132;2024-03-08T03:50:11;53.97;;;34.47;;
48578;SDS011;34357;51.948;6.132;2024-03-08T03:52:37;51.22;;;33.63;;
48578;SDS011;34357;51.948;6.132;2024-03-08T03:55:03;55.30;;;34.33;;
48578;SDS011;34357;51.948;6.132;2024-03-08T03:57:30;53.33;;;33.80;;
48578;SDS011;34357;51.948;6.132;2024-03-08T03:59:56;48.90;;;33.50;;
48578;SDS011;34357;51.948;6.132;2024-03-08T04:02:25;47.43;;;32.97;;
48578;SDS011;34357;51.948;6.132;2024-03-08T04:04:52;51.17;;;33.38;;
48578;SDS011;34357;51.948;6.132;2024-03-08T04:07:19;50.73;;;33.03;;
48578;SDS011;34357;51.948;6.132;2024-03-08T04:09:46;48.42;;;32.90;;
48578;SDS011;34357;51.948;6.132;2024-03-08T04:12:12;50.63;;;34.38;;
48578;SDS011;34357;51.948;6.132;2024-03-08T04:14:41;48.87;;;32.67;;
48578;SDS011;34357;51.948;6.132;2024-03-08T04:17:07;46.73;;;31.97;;
48578;SDS011;34357;51.948;6.132;2024-03-08T04:19:37;48.60;;;32.30;;
48578;SDS011;34357;51.948;6.132;2024-03-08T04:22:05;49.53;;;32.70;;
48578;SDS011;34357;51.948;6.132;2024-03-08T04:24:32;49.05;;;32.75;;
48578;SDS011;34357;51.948;6.132;2024-03-08T04:26:58;48.50;;;34.67;;
48578;SDS011;34357;51.948;6.132;2024-03-08T04:29:24;49.37;;;32.80;;
48578;SDS011;34357;51.948;6.132;2024-03-08T04:31:51;52.83;;;34.90;;
48578;SDS011;34357;51.948;6.132;2024-03-08T04:34:19;55.78;;;34.95;;
48578;SDS011;34357;51.948;6.132;2024-03-08T04:36:46;54.38;;;34.33;;
48578;SDS011;34357;51.948;6.132;2024-03-08T04:39:13;51.10;;;34.33;;
48578;SDS011;34357;51.948;6.132;2024-03-08T04:41:39;47.72;;;32.25;;
48578;SDS011;34357;51.948;6.132;2024-03-08T04:44:05;53.78;;;35.13;;
48578;SDS011;34357;51.948;6.132;2024-03-08T04:46:31;53.60;;;34.67;;
48578;SDS011;34357;51.948;6.132;2024-03-08T04:48:56;51.53;;;33.58;;
48578;SDS011;34357;51.948;6.132;2024-03-08T04:51:24;50.72;;;33.67;;
48578;SDS011;34357;51.948;6.132;2024-03-08T04:53:50;52.93;;;34.90;;
48578;SDS011;34357;51.948;6.132;2024-03-08T04:56:16;53.50;;;35.53;;
48578;SDS011;34357;51.948;6.132;2024-03-08T04:58:45;54.00;;;35.00;;
48578;SDS011;34357;51.948;6.132;2024-03-08T05:01:14;50.03;;;34.00;;
48578;SDS011;34357;51.948;6.132;2024-03-08T05:03:39;47.53;;;32.80;;
48578;SDS011;34357;51.948;6.132;2024-03-08T05:06:05;53.25;;;34.13;;
48578;SDS011;34357;51.948;6.132;2024-03-08T05:08:31;53.83;;;34.50;;
48578;SDS011;34357;51.948;6.132;2024-03-08T05:10:56;51.23;;;34.47;;
48578;SDS011;34357;51.948;6.132;2024-03-08T05:13:22;52.83;;;34.60;;
48578;SDS011;34357;51.948;6.132;2024-03-08T05:15:51;57.07;;;36.43;;
48578;SDS011;34357;51.948;6.132;2024-03-08T05:18:17;53.07;;;34.20;;
48578;SDS011;34357;51.948;6.132;2024-03-08T05:20:42;55.07;;;34.03;;
48578;SDS011;34357;51.948;6.132;2024-03-08T05:23:08;53.50;;;35.30;;
48578;SDS011;34357;51.948;6.132;2024-03-08T05:25:34;55.40;;;35.07;;
48578;SDS011;34357;51.948;6.132;2024-03-08T05:28:00;52.30;;;34.73;;
48578;SDS011;34357;51.948;6.132;2024-03-08T05:30:26;54.45;;;34.78;;
48578;SDS011;34357;51.948;6.132;2024-03-08T05:32:51;54.90;;;34.40;;
48578;SDS011;34357;51.948;6.132;2024-03-08T05:35:17;58.30;;;38.03;;
48578;SDS011;34357;51.948;6.132;2024-03-08T05:37:43;59.63;;;37.17;;
48578;SDS011;34357;51.948;6.132;2024-03-08T05:40:08;56.07;;;36.60;;
48578;SDS011;34357;51.948;6.132;2024-03-08T05:42:35;55.53;;;37.00;;
48578;SDS011;34357;51.948;6.132;2024-03-08T05:45:02;54.27;;;36.17;;
48578;SDS011;34357;51.948;6.132;2024-03-08T05:47:28;55.03;;;36.70;;
48578;SDS011;34357;51.948;6.132;2024-03-08T05:49:54;51.25;;;34.65;;
48578;SDS011;34357;51.948;6.132;2024-03-08T05:52:19;56.83;;;35.40;;
48578;SDS011;34357;51.948;6.132;2024-03-08T05:54:45;55.23;;;35.53;;
48578;SDS011;34357;51.948;6.132;2024-03-08T05:57:12;56.97;;;35.23;;
48578;SDS011;34357;51.948;6.132;2024-03-08T05:59:39;56.67;;;37.20;;
48578;SDS011;34357;51.948;6.132;2024-03-08T06:02:05;52.55;;;35.42;;
48578;SDS011;34357;51.948;6.132;2024-03-08T06:04:31;52.53;;;35.70;;
48578;SDS011;34357;51.948;6.132;2024-03-08T06:06:57;53.70;;;35.33;;
48578;SDS011;34357;51.948;6.132;2024-03-08T06:09:23;58.50;;;37.27;;
48578;SDS011;34357;51.948;6.132;2024-03-08T06:11:50;58.13;;;37.03;;
48578;SDS011;34357;51.948;6.132;2024-03-08T06:14:19;56.43;;;36.07;;
48578;SDS011;34357;51.948;6.132;2024-03-08T06:16:45;55.30;;;37.27;;
48578;SDS011;34357;51.948;6.132;2024-03-08T06:19:12;54.80;;;36.40;;
48578;SDS011;34357;51.948;6.132;2024-03-08T06:21:38;57.30;;;37.40;;
48578;SDS011;34357;51.948;6.132;2024-03-08T06:24:04;56.90;;;37.70;;
48578;SDS011;34357;51.948;6.132;2024-03-08T06:26:30;54.33;;;34.97;;
48578;SDS011;34357;51.948;6.132;2024-03-08T06:28:56;54.20;;;35.40;;
48578;SDS011;34357;51.948;6.132;2024-03-08T06:31:22;55.93;;;35.73;;
48578;SDS011;34357;51.948;6.132;2024-03-08T06:33:48;56.92;;;36.95;;
48578;SDS011;34357;51.948;6.132;2024-03-08T06:36:17;56.72;;;37.15;;
48578;SDS011;34357;51.948;6.132;2024-03-08T06:38:49;54.47;;;35.20;;
48578;SDS011;34357;51.948;6.132;2024-03-08T06:41:15;54.93;;;36.07;;
48578;SDS011;34357;51.948;6.132;2024-03-08T06:43:45;56.33;;;37.43;;
48578;SDS011;34357;51.948;6.132;2024-03-08T06:46:12;55.63;;;36.65;;
48578;SDS011;34357;51.948;6.132;2024-03-08T06:48:39;57.20;;;35.83;;
48578;SDS011;34357;51.948;6.132;2024-03-08T06:51:05;57.97;;;37.08;;
48578;SDS011;34357;51.948;6.132;2024-03-08T06:53:31;56.37;;;36.00;;
48578;SDS011;34357;51.948;6.132;2024-03-08T06:55:57;55.67;;;36.10;;
48578;SDS011;34357;51.948;6.132;2024-03-08T06:58:23;55.10;;;36.70;;
48578;SDS011;34357;51.948;6.132;2024-03-08T07:00:49;55.35;;;36.13;;
48578;SDS011;34357;51.948;6.132;2024-03-08T07:03:18;53.78;;;36.95;;
48578;SDS011;34357;51.948;6.132;2024-03-08T07:05:47;53.22;;;36.03;;
48578;SDS011;34357;51.948;6.132;2024-03-08T07:08:13;52.80;;;35.50;;
48578;SDS011;34357;51.948;6.132;2024-03-08T07:10:39;56.08;;;35.30;;
48578;SDS011;34357;51.948;6.132;2024-03-08T07:13:07;52.95;;;34.88;;
48578;SDS011;34357;51.948;6.132;2024-03-08T07:15:33;50.50;;;34.83;;
48578;SDS011;34357;51.948;6.132;2024-03-08T07:17:59;52.38;;;34.78;;
48578;SDS011;34357;51.948;6.132;2024-03-08T07:20:25;53.25;;;34.90;;
48578;SDS011;34357;51.948;6.132;2024-03-08T07:22:51;54.65;;;36.35;;
48578;SDS011;34357;51.948;6.132;2024-03-08T07:25:17;46.55;;;33.45;;
48578;SDS011;34357;51.948;6.132;2024-03-08T07:30:28;50.50;;;34.95;;
48578;SDS011;34357;51.948;6.132;2024-03-08T07:33:09;54.92;;;34.40;;
48578;SDS011;34357;51.948;6.132;2024-03-08T07:35:38;51.28;;;33.72;;
48578;SDS011;34357;51.948;6.132;2024-03-08T07:38:05;50.35;;;33.97;;
48578;SDS011;34357;51.948;6.132;2024-03-08T07:40:36;53.85;;;34.30;;
48578;SDS011;34357;51.948;6.132;2024-03-08T07:43:05;47.25;;;31.92;;
48578;SDS011;34357;51.948;6.132;2024-03-08T07:45:31;49.60;;;32.65;;
48578;SDS011;34357;51.948;6.132;2024-03-08T07:47:57;51.58;;;31.92;;
48578;SDS011;34357;51.948;6.132;2024-03-08T07:50:23;51.38;;;33.45;;
48578;SDS011;34357;51.948;6.132;2024-03-08T07:52:49;49.83;;;33.35;;
48578;SDS011;34357;51.948;6.132;2024-03-08T07:55:15;45.55;;;30.75;;
48578;SDS011;34357;51.948;6.132;2024-03-08T07:57:41;48.88;;;30.95;;
48578;SDS011;34357;51.948;6.132;2024-03-08T08:00:07;46.00;;;29.23;;
48578;SDS011;34357;51.948;6.132;2024-03-08T08:02:34;45.80;;;31.08;;
48578;SDS011;34357;51.948;6.132;2024-03-08T08:05:01;43.90;;;30.63;;
48578;SDS011;34357;51.948;6.132;2024-03-08T08:07:27;46.92;;;31.20;;
48578;SDS011;34357;51.948;6.132;2024-03-08T08:09:53;47.88;;;32.10;;
48578;SDS011;34357;51.948;6.132;2024-03-08T08:12:19;46.95;;;31.02;;
48578;SDS011;34357;51.948;6.132;2024-03-08T08:14:46;50.53;;;30.95;;
48578;SDS011;34357;51.948;6.132;2024-03-08T08:17:11;46.50;;;29.40;;
48578;SDS011;34357;51.948;6.132;2024-03-08T08:19:37;45.17;;;30.52;;
48578;SDS011;34357;51.948;6.132;2024-03-08T08:22:05;45.25;;;29.33;;
48578;SDS011;34357;51.948;6.132;2024-03-08T08:24:33;42.78;;;28.98;;
48578;SDS011;34357;51.948;6.132;2024-03-08T08:27:02;45.33;;;29.23;;
48578;SDS011;34357;51.948;6.132;2024-03-08T08:29:29;43.22;;;28.27;;
48578;SDS011;34357;51.948;6.132;2024-03-08T08:31:57;44.08;;;29.45;;
48578;SDS011;34357;51.948;6.132;2024-03-08T08:34:24;41.20;;;28.33;;
48578;SDS011;34357;51.948;6.132;2024-03-08T08:36:51;41.17;;;28.58;;
48578;SDS011;34357;51.948;6.132;2024-03-08T08:39:18;42.30;;;28.38;;
48578;SDS011;34357;51.948;6.132;2024-03-08T08:41:44;41.22;;;27.90;;
48578;SDS011;34357;51.948;6.132;2024-03-08T08:44:09;42.47;;;27.48;;
48578;SDS011;34357;51.948;6.132;2024-03-08T08:46:37;40.35;;;27.30;;
48578;SDS011;34357;51.948;6.132;2024-03-08T08:49:06;40.13;;;28.70;;
48578;SDS011;34357;51.948;6.132;2024-03-08T08:51:35;44.15;;;27.85;;
48578;SDS011;34357;51.948;6.132;2024-03-08T08:54:01;41.15;;;27.05;;
48578;SDS011;34357;51.948;6.132;2024-03-08T08:56:27;41.78;;;27.10;;
48578;SDS011;34357;51.948;6.132;2024-03-08T08:58:54;43.08;;;27.67;;
48578;SDS011;34357;51.948;6.132;2024-03-08T09:01:20;40.92;;;26.58;;
48578;SDS011;34357;51.948;6.132;2024-03-08T09:03:45;40.95;;;26.52;;
48578;SDS011;34357;51.948;6.132;2024-03-08T09:06:15;40.13;;;26.45;;
48578;SDS011;34357;51.948;6.132;2024-03-08T09:08:42;40.88;;;27.33;;
48578;SDS011;34357;51.948;6.132;2024-03-08T09:11:09;39.20;;;27.13;;
48578;SDS011;34357;51.948;6.132;2024-03-08T09:13:35;38.25;;;25.88;;
48578;SDS011;34357;51.948;6.132;2024-03-08T09:16:02;37.50;;;26.25;;
48578;SDS011;34357;51.948;6.132;2024-03-08T09:18:30;41.13;;;26.42;;
48578;SDS011;34357;51.948;6.132;2024-03-08T09:20:57;38.97;;;25.55;;
48578;SDS011;34357;51.948;6.132;2024-03-08T09:23:23;35.95;;;26.65;;
48578;SDS011;34357;51.948;6.132;2024-03-08T09:25:50;37.97;;;25.85;;
48578;SDS011;34357;51.948;6.132;2024-03-08T09:28:16;37.90;;;25.60;;
48578;SDS011;34357;51.948;6.132;2024-03-08T09:30:42;40.38;;;27.30;;
48578;SDS011;34357;51.948;6.132;2024-03-08T09:33:09;40.38;;;26.60;;
48578;SDS011;34357;51.948;6.132;2024-03-08T09:35:35;37.42;;;25.33;;
48578;SDS011;34357;51.948;6.132;2024-03-08T09:38:01;34.90;;;25.40;;
48578;SDS011;34357;51.948;6.132;2024-03-08T09:40:27;40.50;;;24.15;;
48578;SDS011;34357;51.948;6.132;2024-03-08T09:42:53;36.45;;;25.20;;
48578;SDS011;34357;51.948;6.132;2024-03-08T09:45:20;39.00;;;25.13;;
48578;SDS011;34357;51.948;6.132;2024-03-08T09:47:50;39.70;;;24.75;;
48578;SDS011;34357;51.948;6.132;2024-03-08T09:50:16;37.40;;;24.98;;
48578;SDS011;34357;51.948;6.132;2024-03-08T09:52:43;35.90;;;24.38;;
48578;SDS011;34357;51.948;6.132;2024-03-08T09:55:11;35.40;;;23.90;;
48578;SDS011;34357;51.948;6.132;2024-03-08T09:57:37;34.95;;;25.05;;
48578;SDS011;34357;51.948;6.132;2024-03-08T10:00:04;35.58;;;24.77;;
48578;SDS011;34357;51.948;6.132;2024-03-08T10:02:46;34.55;;;25.58;;
48578;SDS011;34357;51.948;6.132;2024-03-08T10:05:13;36.80;;;25.05;;
48578;SDS011;34357;51.948;6.132;2024-03-08T10:07:39;37.05;;;25.23;;
48578;SDS011;34357;51.948;6.132;2024-03-08T10:10:05;37.08;;;26.02;;
48578;SDS011;34357;51.948;6.132;2024-03-08T10:12:34;38.55;;;24.58;;
48578;SDS011;34357;51.948;6.132;2024-03-08T10:15:00;37.13;;;24.83;;
48578;SDS011;34357;51.948;6.132;2024-03-08T10:17:26;41.33;;;27.88;;
48578;SDS011;34357;51.948;6.132;2024-03-08T10:19:57;41.58;;;27.70;;
48578;SDS011;34357;51.948;6.132;2024-03-08T10:22:27;32.88;;;23.20;;
48578;SDS011;34357;51.948;6.132;2024-03-08T10:24:54;31.20;;;21.50;;
48578;SDS011;34357;51.948;6.132;2024-03-08T10:27:20;31.15;;;22.85;;
48578;SDS011;34357;51.948;6.132;2024-03-08T10:29:47;30.90;;;21.92;;
48578;SDS011;34357;51.948;6.132;2024-03-08T10:32:13;32.78;;;22.63;;
48578;SDS011;34357;51.948;6.132;2024-03-08T10:34:38;30.25;;;22.77;;
48578;SDS011;34357;51.948;6.132;2024-03-08T10:37:04;35.38;;;23.23;;
48578;SDS011;34357;51.948;6.132;2024-03-08T10:39:36;31.70;;;22.23;;
48578;SDS011;34357;51.948;6.132;2024-03-08T10:42:02;32.22;;;23.58;;
48578;SDS011;34357;51.948;6.132;2024-03-08T10:49:30;30.90;;;22.40;;
48578;SDS011;34357;51.948;6.132;2024-03-08T10:52:15;34.80;;;23.80;;
48578;SDS011;34357;51.948;6.132;2024-03-08T10:54:43;33.05;;;22.05;;
48578;SDS011;34357;51.948;6.132;2024-03-08T10:57:12;32.00;;;21.90;;
48578;SDS011;34357;51.948;6.132;2024-03-08T10:59:40;31.38;;;21.13;;
48578;SDS011;34357;51.948;6.132;2024-03-08T11:02:09;34.25;;;22.60;;
48578;SDS011;34357;51.948;6.132;2024-03-08T11:04:37;32.45;;;20.92;;
48578;SDS011;34357;51.948;6.132;2024-03-08T11:07:03;30.48;;;21.45;;
48578;SDS011;34357;51.948;6.132;2024-03-08T11:09:37;30.52;;;20.88;;
48578;SDS011;34357;51.948;6.132;2024-03-08T11:15:02;25.33;;;18.75;;
48578;SDS011;34357;51.948;6.132;2024-03-08T11:20:08;25.50;;;19.30;;
48578;SDS011;34357;51.948;6.132;2024-03-08T11:22:41;29.20;;;18.52;;
48578;SDS011;34357;51.948;6.132;2024-03-08T11:28:12;29.70;;;20.95;;
48578;SDS011;34357;51.948;6.132;2024-03-08T11:30:45;28.85;;;20.40;;
48578;SDS011;34357;51.948;6.132;2024-03-08T11:33:40;28.42;;;19.92;;
48578;SDS011;34357;51.948;6.132;2024-03-08T11:36:10;27.60;;;19.50;;
48578;SDS011;34357;51.948;6.132;2024-03-08T11:38:43;28.38;;;20.50;;
48578;SDS011;34357;51.948;6.132;2024-03-08T11:41:09;28.45;;;19.33;;
48578;SDS011;34357;51.948;6.132;2024-03-08T11:43:39;30.60;;;21.00;;
48578;SDS011;34357;51.948;6.132;2024-03-08T11:46:12;27.15;;;20.13;;
48578;SDS011;34357;51.948;6.132;2024-03-08T11:48:39;27.45;;;19.25;;
48578;SDS011;34357;51.948;6.132;2024-03-08T11:51:09;27.42;;;19.75;;
48578;SDS011;34357;51.948;6.132;2024-03-08T11:53:37;30.75;;;20.25;;
48578;SDS011;34357;51.948;6.132;2024-03-08T11:56:07;26.48;;;18.67;;
48578;SDS011;34357;51.948;6.132;2024-03-08T11:58:34;27.98;;;19.40;;
48578;SDS011;34357;51.948;6.132;2024-03-08T12:01:02;30.67;;;19.45;;
48578;SDS011;34357;51.948;6.132;2024-03-08T12:03:32;26.75;;;18.10;;
48578;SDS011;34357;51.948;6.132;2024-03-08T12:06:01;26.25;;;18.90;;
48578;SDS011;34357;51.948;6.132;2024-03-08T12:08:30;28.52;;;19.27;;
48578;SDS011;34357;51.948;6.132;2024-03-08T12:10:57;28.48;;;19.17;;
48578;SDS011;34357;51.948;6.132;2024-03-08T12:13:26;26.20;;;18.67;;
48578;SDS011;34357;51.948;6.132;2024-03-08T12:16:03;26.98;;;18.40;;
48578;SDS011;34357;51.948;6.132;2024-03-08T12:18:32;30.77;;;19.33;;
48578;SDS011;34357;51.948;6.132;2024-03-08T12:21:09;26.38;;;18.60;;
48578;SDS011;34357;51.948;6.132;2024-03-08T12:23:35;27.27;;;19.80;;
48578;SDS011;34357;51.948;6.132;2024-03-08T12:26:15;27.52;;;20.23;;
48578;SDS011;34357;51.948;6.132;2024-03-08T12:28:49;29.45;;;19.92;;
48578;SDS011;34357;51.948;6.132;2024-03-08T12:31:18;27.10;;;19.17;;
48578;SDS011;34357;51.948;6.132;2024-03-08T12:33:48;27.70;;;19.17;;
48578;SDS011;34357;51.948;6.132;2024-03-08T12:36:15;31.25;;;19.80;;
48578;SDS011;34357;51.948;6.132;2024-03-08T12:38:44;27.65;;;19.15;;
48578;SDS011;34357;51.948;6.132;2024-03-08T12:41:16;25.25;;;18.77;;
48578;SDS011;34357;51.948;6.132;2024-03-08T12:43:46;26.15;;;19.45;;
48578;SDS011;34357;51.948;6.132;2024-03-08T12:46:16;28.13;;;18.55;;
48578;SDS011;34357;51.948;6.132;2024-03-08T12:48:42;28.67;;;19.48;;
48578;SDS011;34357;51.948;6.132;2024-03-08T12:51:12;30.70;;;19.85;;
48578;SDS011;34357;51.948;6.132;2024-03-08T12:53:42;25.80;;;19.20;;
48578;SDS011;34357;51.948;6.132;2024-03-08T12:56:12;29.63;;;19.95;;
48578;SDS011;34357;51.948;6.132;2024-03-08T12:58:38;27.33;;;20.30;;
48578;SDS011;34357;51.948;6.132;2024-03-08T13:01:06;29.83;;;20.90;;
48578;SDS011;34357;51.948;6.132;2024-03-08T13:03:35;28.63;;;20.85;;
48578;SDS011;34357;51.948;6.132;2024-03-08T13:06:05;27.17;;;19.48;;
48578;SDS011;34357;51.948;6.132;2024-03-08T13:08:34;28.17;;;18.98;;
48578;SDS011;34357;51.948;6.132;2024-03-08T13:11:06;28.75;;;19.58;;
48578;SDS011;34357;51.948;6.132;2024-03-08T13:13:32;28.08;;;19.83;;
48578;SDS011;34357;51.948;6.132;2024-03-08T13:16:01;30.63;;;20.67;;
48578;SDS011;34357;51.948;6.132;2024-03-08T13:18:27;29.13;;;18.95;;
48578;SDS011;34357;51.948;6.132;2024-03-08T13:20:54;27.85;;;19.65;;
48578;SDS011;34357;51.948;6.132;2024-03-08T13:23:22;27.08;;;18.95;;
48578;SDS011;34357;51.948;6.132;2024-03-08T13:25:47;28.40;;;19.42;;
48578;SDS011;34357;51.948;6.132;2024-03-08T13:28:14;28.77;;;20.27;;
48578;SDS011;34357;51.948;6.132;2024-03-08T13:30:40;28.60;;;19.50;;
48578;SDS011;34357;51.948;6.132;2024-03-08T13:33:06;30.20;;;20.33;;
48578;SDS011;34357;51.948;6.132;2024-03-08T13:35:32;25.88;;;18.80;;
48578;SDS011;34357;51.948;6.132;2024-03-08T13:37:59;26.65;;;18.55;;
48578;SDS011;34357;51.948;6.132;2024-03-08T13:40:28;29.20;;;19.95;;
48578;SDS011;34357;51.948;6.132;2024-03-08T13:42:54;27.10;;;19.13;;
48578;SDS011;34357;51.948;6.132;2024-03-08T13:45:19;25.55;;;18.92;;
48578;SDS011;34357;51.948;6.132;2024-03-08T13:47:53;25.75;;;18.88;;
48578;SDS011;34357;51.948;6.132;2024-03-08T13:50:19;27.00;;;19.60;;
48578;SDS011;34357;51.948;6.132;2024-03-08T13:52:48;28.63;;;18.83;;
48578;SDS011;34357;51.948;6.132;2024-03-08T13:55:19;29.55;;;19.75;;
48578;SDS011;34357;51.948;6.132;2024-03-08T13:57:50;28.08;;;19.10;;
48578;SDS011;34357;51.948;6.132;2024-03-08T14:00:16;27.40;;;21.02;;
48578;SDS011;34357;51.948;6.132;2024-03-08T14:02:46;27.02;;;19.17;;
48578;SDS011;34357;51.948;6.132;2024-03-08T14:05:11;28.80;;;19.45;;
48578;SDS011;34357;51.948;6.132;2024-03-08T14:07:39;27.42;;;19.27;;
48578;SDS011;34357;51.948;6.132;2024-03-08T14:10:05;27.48;;;19.60;;
48578;SDS011;34357;51.948;6.132;2024-03-08T14:12:32;26.92;;;20.55;;
48578;SDS011;34357;51.948;6.132;2024-03-08T14:14:58;26.90;;;19.52;;
48578;SDS011;34357;51.948;6.132;2024-03-08T14:17:27;26.90;;;20.27;;
48578;SDS011;34357;51.948;6.132;2024-03-08T14:19:56;29.50;;;19.75;;
48578;SDS011;34357;51.948;6.132;2024-03-08T14:22:22;26.48;;;18.83;;
48578;SDS011;34357;51.948;6.132;2024-03-08T14:24:48;27.80;;;19.40;;
48578;SDS011;34357;51.948;6.132;2024-03-08T14:27:14;29.23;;;19.52;;
48578;SDS011;34357;51.948;6.132;2024-03-08T14:29:42;32.67;;;19.27;;
48578;SDS011;34357;51.948;6.132;2024-03-08T14:32:08;26.80;;;19.52;;
48578;SDS011;34357;51.948;6.132;2024-03-08T14:34:35;26.95;;;18.55;;
48578;SDS011;34357;51.948;6.132;2024-03-08T14:37:01;26.90;;;18.10;;
48578;SDS011;34357;51.948;6.132;2024-03-08T14:39:30;28.63;;;19.27;;